sensor_id;sensor_type;location;lat;lon;timestamp;temperature;humidity
27633;DHT22;15046;50.930;13.334;2022-11-15T00:00:52;6.60;99.90
27633;DHT22;15046;50.930;13.334;2022-11-15T00:03:20;6.60;99.90
27633;DHT22;15046;50.930;13.334;2022-11-15T00:05:47;6.70;99.90
27633;DHT22;15046;50.930;13.334;2022-11-15T00:08:13;6.70;99.90
27633;DHT22;15046;50.930;13.334;2022-11-15T00:10:39;6.70;99.90
27633;DHT22;15046;50.930;13.334;2022-11-15T00:13:10;6.70;99.90
27633;DHT22;15046;50.930;13.334;2022-11-15T00:15:40;6.70;99.90
27633;DHT22;15046;50.930;13.334;2022-11-15T00:18:13;6.70;99.90
27633;DHT22;15046;50.930;13.334;2022-11-15T00:20:39;6.70;99.90
27633;DHT22;15046;50.930;13.334;2022-11-15T00:23:05;6.60;99.90
27633;DHT22;15046;50.930;13.334;2022-11-15T00:25:32;6.60;99.90
27633;DHT22;15046;50.930;13.334;2022-11-15T00:27:59;6.60;99.90
27633;DHT22;15046;50.930;13.334;2022-11-15T00:30:26;6.60;99.90
27633;DHT22;15046;50.930;13.334;2022-11-15T00:32:52;6.70;99.90
27633;DHT22;15046;50.930;13.334;2022-11-15T00:35:19;6.70;99.90
27633;DHT22;15046;50.930;13.334;2022-11-15T00:37:44;6.70;99.90
27633;DHT22;15046;50.930;13.334;2022-11-15T00:40:11;6.70;99.90
27633;DHT22;15046;50.930;13.334;2022-11-15T00:42:41;6.80;99.90
27633;DHT22;15046;50.930;13.334;2022-11-15T00:45:07;6.80;99.90
27633;DHT22;15046;50.930;13.334;2022-11-15T00:47:33;6.80;99.90
27633;DHT22;15046;50.930;13.334;2022-11-15T00:49:58;6.80;99.90
27633;DHT22;15046;50.930;13.334;2022-11-15T00:52:24;6.90;99.90
27633;DHT22;15046;50.930;13.334;2022-11-15T00:54:50;6.80;99.90
27633;DHT22;15046;50.930;13.334;2022-11-15T00:57:16;6.80;99.90
27633;DHT22;15046;50.930;13.334;2022-11-15T00:59:42;6.80;99.90
27633;DHT22;15046;50.930;13.334;2022-11-15T01:02:07;6.80;99.90
27633;DHT22;15046;50.930;13.334;2022-11-15T01:04:33;6.60;99.90
27633;DHT22;15046;50.930;13.334;2022-11-15T01:06:59;6.60;99.90
27633;DHT22;15046;50.930;13.334;2022-11-15T01:09:25;6.60;99.90
27633;DHT22;15046;50.930;13.334;2022-11-15T01:11:50;6.70;99.90
27633;DHT22;15046;50.930;13.334;2022-11-15T01:14:17;6.70;99.90
27633;DHT22;15046;50.930;13.334;2022-11-15T01:16:43;6.70;99.90
27633;DHT22;15046;50.930;13.334;2022-11-15T01:19:08;6.70;99.90
27633;DHT22;15046;50.930;13.334;2022-11-15T01:21:34;6.70;99.90
27633;DHT22;15046;50.930;13.334;2022-11-15T01:24:00;6.70;99.90
27633;DHT22;15046;50.930;13.334;2022-11-15T01:26:26;6.70;99.90
27633;DHT22;15046;50.930;13.334;2022-11-15T01:28:52;6.70;99.90
27633;DHT22;15046;50.930;13.334;2022-11-15T01:31:20;6.60;99.90
27633;DHT22;15046;50.930;13.334;2022-11-15T01:33:46;6.60;99.90
27633;DHT22;15046;50.930;13.334;2022-11-15T01:36:15;6.60;99.90
27633;DHT22;15046;50.930;13.334;2022-11-15T01:38:41;6.70;99.90
27633;DHT22;15046;50.930;13.334;2022-11-15T01:41:18;6.60;99.90
27633;DHT22;15046;50.930;13.334;2022-11-15T01:43:47;6.60;99.90
27633;DHT22;15046;50.930;13.334;2022-11-15T01:48:43;6.70;99.90
27633;DHT22;15046;50.930;13.334;2022-11-15T01:51:11;6.70;99.90
27633;DHT22;15046;50.930;13.334;2022-11-15T01:53:41;6.70;99.90
27633;DHT22;15046;50.930;13.334;2022-11-15T01:56:12;6.70;99.90
27633;DHT22;15046;50.930;13.334;2022-11-15T01:58:40;6.70;99.90
27633;DHT22;15046;50.930;13.334;2022-11-15T02:01:07;6.70;99.90
27633;DHT22;15046;50.930;13.334;2022-11-15T02:03:51;6.70;99.90
27633;DHT22;15046;50.930;13.334;2022-11-15T02:06:18;6.70;99.90
27633;DHT22;15046;50.930;13.334;2022-11-15T02:08:44;6.70;99.90
27633;DHT22;15046;50.930;13.334;2022-11-15T02:11:10;6.60;99.90
27633;DHT22;15046;50.930;13.334;2022-11-15T02:13:37;6.70;99.90
27633;DHT22;15046;50.930;13.334;2022-11-15T02:18:41;6.60;99.90
27633;DHT22;15046;50.930;13.334;2022-11-15T02:32:15;6.60;99.90
27633;DHT22;15046;50.930;13.334;2022-11-15T02:40:56;6.50;99.90
27633;DHT22;15046;50.930;13.334;2022-11-15T02:43:37;6.60;99.90
27633;DHT22;15046;50.930;13.334;2022-11-15T02:49:11;6.50;99.90
27633;DHT22;15046;50.930;13.334;2022-11-15T02:51:39;6.50;99.90
27633;DHT22;15046;50.930;13.334;2022-11-15T02:54:05;6.50;99.90
27633;DHT22;15046;50.930;13.334;2022-11-15T02:56:31;6.50;99.90
27633;DHT22;15046;50.930;13.334;2022-11-15T03:04:24;6.50;99.90
27633;DHT22;15046;50.930;13.334;2022-11-15T03:07:22;6.50;99.90
27633;DHT22;15046;50.930;13.334;2022-11-15T03:12:42;6.50;99.90
27633;DHT22;15046;50.930;13.334;2022-11-15T03:16:24;6.50;99.90
27633;DHT22;15046;50.930;13.334;2022-11-15T03:18:25;6.40;99.90
27633;DHT22;15046;50.930;13.334;2022-11-15T03:20:55;6.40;99.90
27633;DHT22;15046;50.930;13.334;2022-11-15T03:23:24;6.40;99.90
27633;DHT22;15046;50.930;13.334;2022-11-15T03:25:52;6.40;99.90
27633;DHT22;15046;50.930;13.334;2022-11-15T03:28:23;6.40;99.90
27633;DHT22;15046;50.930;13.334;2022-11-15T03:30:52;6.30;99.90
27633;DHT22;15046;50.930;13.334;2022-11-15T03:33:19;6.30;99.90
27633;DHT22;15046;50.930;13.334;2022-11-15T03:35:47;6.30;99.90
27633;DHT22;15046;50.930;13.334;2022-11-15T03:38:21;6.30;99.90
27633;DHT22;15046;50.930;13.334;2022-11-15T03:41:00;6.30;99.90
27633;DHT22;15046;50.930;13.334;2022-11-15T03:43:34;6.30;99.90
27633;DHT22;15046;50.930;13.334;2022-11-15T03:46:11;6.20;99.90
27633;DHT22;15046;50.930;13.334;2022-11-15T03:48:47;6.20;99.90
27633;DHT22;15046;50.930;13.334;2022-11-15T03:51:14;6.20;99.90
27633;DHT22;15046;50.930;13.334;2022-11-15T03:53:41;6.20;99.90
27633;DHT22;15046;50.930;13.334;2022-11-15T03:56:07;6.20;99.90
27633;DHT22;15046;50.930;13.334;2022-11-15T03:58:33;6.20;99.90
27633;DHT22;15046;50.930;13.334;2022-11-15T04:00:58;6.20;99.90
27633;DHT22;15046;50.930;13.334;2022-11-15T04:03:25;6.20;99.90
27633;DHT22;15046;50.930;13.334;2022-11-15T04:05:51;6.20;99.90
27633;DHT22;15046;50.930;13.334;2022-11-15T04:08:16;6.20;99.90
27633;DHT22;15046;50.930;13.334;2022-11-15T04:10:43;6.30;99.90
27633;DHT22;15046;50.930;13.334;2022-11-15T04:13:08;6.30;99.90
27633;DHT22;15046;50.930;13.334;2022-11-15T04:15:35;6.30;99.90
27633;DHT22;15046;50.930;13.334;2022-11-15T04:18:01;6.30;99.90
27633;DHT22;15046;50.930;13.334;2022-11-15T04:20:29;6.30;99.90
27633;DHT22;15046;50.930;13.334;2022-11-15T04:23:19;6.20;99.90
27633;DHT22;15046;50.930;13.334;2022-11-15T04:26:14;6.20;99.90
27633;DHT22;15046;50.930;13.334;2022-11-15T04:28:40;6.10;99.90
27633;DHT22;15046;50.930;13.334;2022-11-15T04:31:24;6.20;99.90
27633;DHT22;15046;50.930;13.334;2022-11-15T04:33:50;6.20;99.90
27633;DHT22;15046;50.930;13.334;2022-11-15T04:36:16;6.20;99.90
27633;DHT22;15046;50.930;13.334;2022-11-15T04:39:00;6.20;99.90
27633;DHT22;15046;50.930;13.334;2022-11-15T04:41:26;6.20;99.90
27633;DHT22;15046;50.930;13.334;2022-11-15T04:43:52;6.20;99.90
27633;DHT22;15046;50.930;13.334;2022-11-15T04:46:17;6.20;99.90
27633;DHT22;15046;50.930;13.334;2022-11-15T04:48:43;6.20;99.90
27633;DHT22;15046;50.930;13.334;2022-11-15T04:51:09;6.20;99.90
27633;DHT22;15046;50.930;13.334;2022-11-15T04:53:35;6.20;99.90
27633;DHT22;15046;50.930;13.334;2022-11-15T04:56:00;6.30;99.90
27633;DHT22;15046;50.930;13.334;2022-11-15T04:58:26;6.30;99.90
27633;DHT22;15046;50.930;13.334;2022-11-15T05:00:52;6.30;99.90
27633;DHT22;15046;50.930;13.334;2022-11-15T05:03:18;6.30;99.90
27633;DHT22;15046;50.930;13.334;2022-11-15T05:06:02;6.30;99.90
27633;DHT22;15046;50.930;13.334;2022-11-15T05:08:28;6.30;99.90
27633;DHT22;15046;50.930;13.334;2022-11-15T05:10:54;6.30;99.90
27633;DHT22;15046;50.930;13.334;2022-11-15T05:13:19;6.30;99.90
27633;DHT22;15046;50.930;13.334;2022-11-15T05:15:45;6.20;99.90
27633;DHT22;15046;50.930;13.334;2022-11-15T05:18:14;6.30;99.90
27633;DHT22;15046;50.930;13.334;2022-11-15T05:20:40;6.20;99.90
27633;DHT22;15046;50.930;13.334;2022-11-15T05:23:06;6.20;99.90
27633;DHT22;15046;50.930;13.334;2022-11-15T05:25:32;6.20;99.90
27633;DHT22;15046;50.930;13.334;2022-11-15T05:27:58;6.20;99.90
27633;DHT22;15046;50.930;13.334;2022-11-15T05:30:25;6.20;99.90
27633;DHT22;15046;50.930;13.334;2022-11-15T05:32:51;6.10;99.90
27633;DHT22;15046;50.930;13.334;2022-11-15T05:35:30;6.10;99.90
27633;DHT22;15046;50.930;13.334;2022-11-15T05:37:57;6.20;99.90
27633;DHT22;15046;50.930;13.334;2022-11-15T05:40:24;6.10;99.90
27633;DHT22;15046;50.930;13.334;2022-11-15T05:42:50;6.10;99.90
27633;DHT22;15046;50.930;13.334;2022-11-15T05:45:16;6.00;99.90
27633;DHT22;15046;50.930;13.334;2022-11-15T05:47:42;5.90;99.90
27633;DHT22;15046;50.930;13.334;2022-11-15T05:50:12;5.90;99.90
27633;DHT22;15046;50.930;13.334;2022-11-15T05:52:40;5.90;99.90
27633;DHT22;15046;50.930;13.334;2022-11-15T05:55:07;5.90;99.90
27633;DHT22;15046;50.930;13.334;2022-11-15T05:57:34;5.90;99.90
27633;DHT22;15046;50.930;13.334;2022-11-15T06:00:00;5.90;99.90
27633;DHT22;15046;50.930;13.334;2022-11-15T06:02:29;5.90;99.90
27633;DHT22;15046;50.930;13.334;2022-11-15T06:04:55;5.90;99.90
27633;DHT22;15046;50.930;13.334;2022-11-15T06:07:21;5.90;99.90
27633;DHT22;15046;50.930;13.334;2022-11-15T06:09:47;5.90;99.90
27633;DHT22;15046;50.930;13.334;2022-11-15T06:12:13;5.90;99.90
27633;DHT22;15046;50.930;13.334;2022-11-15T06:14:39;5.90;99.90
27633;DHT22;15046;50.930;13.334;2022-11-15T06:17:04;5.90;99.90
27633;DHT22;15046;50.930;13.334;2022-11-15T06:19:30;6.00;99.90
27633;DHT22;15046;50.930;13.334;2022-11-15T06:22:01;6.00;99.90
27633;DHT22;15046;50.930;13.334;2022-11-15T06:24:27;6.00;99.90
27633;DHT22;15046;50.930;13.334;2022-11-15T06:26:53;6.00;99.90
27633;DHT22;15046;50.930;13.334;2022-11-15T06:29:19;6.10;99.90
27633;DHT22;15046;50.930;13.334;2022-11-15T06:31:45;6.10;99.90
27633;DHT22;15046;50.930;13.334;2022-11-15T06:34:10;6.20;99.90
27633;DHT22;15046;50.930;13.334;2022-11-15T06:36:36;6.20;99.90
27633;DHT22;15046;50.930;13.334;2022-11-15T06:39:05;6.20;99.90
27633;DHT22;15046;50.930;13.334;2022-11-15T06:41:34;6.20;99.90
27633;DHT22;15046;50.930;13.334;2022-11-15T06:44:00;6.20;99.90
27633;DHT22;15046;50.930;13.334;2022-11-15T06:46:26;6.30;99.90
27633;DHT22;15046;50.930;13.334;2022-11-15T06:48:53;6.30;99.90
27633;DHT22;15046;50.930;13.334;2022-11-15T06:51:19;6.40;99.90
27633;DHT22;15046;50.930;13.334;2022-11-15T06:53:45;6.40;99.90
27633;DHT22;15046;50.930;13.334;2022-11-15T06:56:11;6.50;99.90
27633;DHT22;15046;50.930;13.334;2022-11-15T06:58:37;6.50;99.90
27633;DHT22;15046;50.930;13.334;2022-11-15T07:01:09;6.50;99.90
27633;DHT22;15046;50.930;13.334;2022-11-15T07:03:36;6.50;99.90
27633;DHT22;15046;50.930;13.334;2022-11-15T07:06:03;6.60;99.90
27633;DHT22;15046;50.930;13.334;2022-11-15T07:08:29;6.60;99.90
27633;DHT22;15046;50.930;13.334;2022-11-15T07:10:58;6.70;99.90
27633;DHT22;15046;50.930;13.334;2022-11-15T07:13:25;6.70;99.90
27633;DHT22;15046;50.930;13.334;2022-11-15T07:15:51;6.80;99.90
27633;DHT22;15046;50.930;13.334;2022-11-15T07:18:17;6.80;99.90
27633;DHT22;15046;50.930;13.334;2022-11-15T07:20:42;6.90;99.90
27633;DHT22;15046;50.930;13.334;2022-11-15T07:23:08;6.90;99.90
27633;DHT22;15046;50.930;13.334;2022-11-15T07:25:34;7.00;99.90
27633;DHT22;15046;50.930;13.334;2022-11-15T07:28:00;7.10;99.90
27633;DHT22;15046;50.930;13.334;2022-11-15T07:30:27;7.10;99.90
27633;DHT22;15046;50.930;13.334;2022-11-15T07:32:59;7.20;99.90
27633;DHT22;15046;50.930;13.334;2022-11-15T07:35:27;7.20;99.90
27633;DHT22;15046;50.930;13.334;2022-11-15T07:38:03;7.30;99.90
27633;DHT22;15046;50.930;13.334;2022-11-15T07:40:30;7.30;99.90
27633;DHT22;15046;50.930;13.334;2022-11-15T07:43:05;7.40;99.90
27633;DHT22;15046;50.930;13.334;2022-11-15T07:45:32;7.40;99.90
27633;DHT22;15046;50.930;13.334;2022-11-15T07:47:59;7.50;99.90
27633;DHT22;15046;50.930;13.334;2022-11-15T07:50:25;7.50;99.90
27633;DHT22;15046;50.930;13.334;2022-11-15T07:52:56;7.60;99.90
27633;DHT22;15046;50.930;13.334;2022-11-15T07:55:29;7.60;99.90
27633;DHT22;15046;50.930;13.334;2022-11-15T07:58:24;7.80;99.90
27633;DHT22;15046;50.930;13.334;2022-11-15T08:00:50;7.90;99.90
27633;DHT22;15046;50.930;13.334;2022-11-15T08:03:16;7.90;99.90
27633;DHT22;15046;50.930;13.334;2022-11-15T08:05:43;8.10;99.90
27633;DHT22;15046;50.930;13.334;2022-11-15T08:08:10;8.10;99.90
27633;DHT22;15046;50.930;13.334;2022-11-15T08:10:39;8.20;99.90
27633;DHT22;15046;50.930;13.334;2022-11-15T08:13:08;8.20;99.90
27633;DHT22;15046;50.930;13.334;2022-11-15T08:15:35;8.30;99.90
27633;DHT22;15046;50.930;13.334;2022-11-15T08:18:05;8.30;99.90
27633;DHT22;15046;50.930;13.334;2022-11-15T08:20:31;8.50;99.90
27633;DHT22;15046;50.930;13.334;2022-11-15T08:22:58;8.60;99.90
27633;DHT22;15046;50.930;13.334;2022-11-15T08:25:25;8.60;99.90
27633;DHT22;15046;50.930;13.334;2022-11-15T08:27:56;8.70;99.90
27633;DHT22;15046;50.930;13.334;2022-11-15T08:30:23;8.80;99.90
27633;DHT22;15046;50.930;13.334;2022-11-15T08:32:50;9.00;99.90
27633;DHT22;15046;50.930;13.334;2022-11-15T08:35:17;9.00;99.90
27633;DHT22;15046;50.930;13.334;2022-11-15T08:37:43;9.10;99.90
27633;DHT22;15046;50.930;13.334;2022-11-15T08:40:09;9.20;99.90
27633;DHT22;15046;50.930;13.334;2022-11-15T08:42:35;9.20;99.90
27633;DHT22;15046;50.930;13.334;2022-11-15T08:45:01;9.30;99.90
27633;DHT22;15046;50.930;13.334;2022-11-15T08:47:27;9.30;99.90
27633;DHT22;15046;50.930;13.334;2022-11-15T08:49:53;9.40;99.90
27633;DHT22;15046;50.930;13.334;2022-11-15T08:52:19;9.50;99.90
27633;DHT22;15046;50.930;13.334;2022-11-15T08:54:44;9.60;99.90
27633;DHT22;15046;50.930;13.334;2022-11-15T08:57:10;9.70;99.90
27633;DHT22;15046;50.930;13.334;2022-11-15T08:59:36;9.80;99.90
27633;DHT22;15046;50.930;13.334;2022-11-15T09:02:03;9.90;99.90
27633;DHT22;15046;50.930;13.334;2022-11-15T09:04:29;10.10;99.90
27633;DHT22;15046;50.930;13.334;2022-11-15T09:06:55;10.20;99.90
27633;DHT22;15046;50.930;13.334;2022-11-15T09:09:21;10.30;99.90
27633;DHT22;15046;50.930;13.334;2022-11-15T09:11:47;10.40;99.90
27633;DHT22;15046;50.930;13.334;2022-11-15T09:14:14;10.60;99.90
27633;DHT22;15046;50.930;13.334;2022-11-15T09:16:40;10.70;99.90
27633;DHT22;15046;50.930;13.334;2022-11-15T09:19:06;11.00;99.90
27633;DHT22;15046;50.930;13.334;2022-11-15T09:21:32;11.30;99.90
27633;DHT22;15046;50.930;13.334;2022-11-15T09:23:58;11.70;99.90
27633;DHT22;15046;50.930;13.334;2022-11-15T09:26:25;12.00;99.90
27633;DHT22;15046;50.930;13.334;2022-11-15T09:28:50;12.40;99.90
27633;DHT22;15046;50.930;13.334;2022-11-15T09:31:16;12.80;99.90
27633;DHT22;15046;50.930;13.334;2022-11-15T09:33:45;13.20;99.90
27633;DHT22;15046;50.930;13.334;2022-11-15T09:36:12;13.50;99.90
27633;DHT22;15046;50.930;13.334;2022-11-15T09:38:38;13.80;99.90
27633;DHT22;15046;50.930;13.334;2022-11-15T09:46:42;14.80;99.90
27633;DHT22;15046;50.930;13.334;2022-11-15T09:49:14;15.10;99.90
27633;DHT22;15046;50.930;13.334;2022-11-15T09:51:43;15.50;99.90
27633;DHT22;15046;50.930;13.334;2022-11-15T09:54:34;15.80;99.90
27633;DHT22;15046;50.930;13.334;2022-11-15T09:57:13;16.20;99.90
27633;DHT22;15046;50.930;13.334;2022-11-15T10:00:03;16.60;99.90
27633;DHT22;15046;50.930;13.334;2022-11-15T10:05:22;17.60;97.70
27633;DHT22;15046;50.930;13.334;2022-11-15T10:08:37;18.30;95.60
27633;DHT22;15046;50.930;13.334;2022-11-15T10:10:43;18.80;93.90
27633;DHT22;15046;50.930;13.334;2022-11-15T10:13:20;19.50;92.10
27633;DHT22;15046;50.930;13.334;2022-11-15T10:15:48;20.50;90.00
27633;DHT22;15046;50.930;13.334;2022-11-15T10:18:19;21.30;85.80
27633;DHT22;15046;50.930;13.334;2022-11-15T10:21:10;22.00;82.00
27633;DHT22;15046;50.930;13.334;2022-11-15T10:23:40;22.90;78.60
27633;DHT22;15046;50.930;13.334;2022-11-15T10:26:10;23.60;75.30
27633;DHT22;15046;50.930;13.334;2022-11-15T10:28:36;24.40;72.20
27633;DHT22;15046;50.930;13.334;2022-11-15T10:31:02;24.80;69.40
27633;DHT22;15046;50.930;13.334;2022-11-15T10:33:34;25.30;67.20
27633;DHT22;15046;50.930;13.334;2022-11-15T10:38:51;26.00;65.00
27633;DHT22;15046;50.930;13.334;2022-11-15T10:44:18;26.50;61.90
27633;DHT22;15046;50.930;13.334;2022-11-15T10:47:06;26.80;60.60
27633;DHT22;15046;50.930;13.334;2022-11-15T10:49:54;27.10;59.60
27633;DHT22;15046;50.930;13.334;2022-11-15T10:52:20;27.20;59.00
27633;DHT22;15046;50.930;13.334;2022-11-15T10:55:00;27.20;58.40
27633;DHT22;15046;50.930;13.334;2022-11-15T10:57:32;27.10;57.50
27633;DHT22;15046;50.930;13.334;2022-11-15T11:05:36;27.50;56.80
27633;DHT22;15046;50.930;13.334;2022-11-15T11:08:23;28.00;55.90
27633;DHT22;15046;50.930;13.334;2022-11-15T11:10:58;28.10;55.40
27633;DHT22;15046;50.930;13.334;2022-11-15T11:13:26;28.30;54.70
27633;DHT22;15046;50.930;13.334;2022-11-15T11:25:13;28.40;53.20
27633;DHT22;15046;50.930;13.334;2022-11-15T11:30:55;28.80;52.60
27633;DHT22;15046;50.930;13.334;2022-11-15T11:33:50;28.80;52.20
27633;DHT22;15046;50.930;13.334;2022-11-15T11:36:28;28.90;51.80
27633;DHT22;15046;50.930;13.334;2022-11-15T11:41:42;29.60;51.30
27633;DHT22;15046;50.930;13.334;2022-11-15T11:49:50;30.00;50.10
27633;DHT22;15046;50.930;13.334;2022-11-15T11:52:31;29.80;49.60
27633;DHT22;15046;50.930;13.334;2022-11-15T11:55:03;29.60;49.60
27633;DHT22;15046;50.930;13.334;2022-11-15T11:57:43;29.60;49.70
27633;DHT22;15046;50.930;13.334;2022-11-15T12:00:37;29.80;49.20
27633;DHT22;15046;50.930;13.334;2022-11-15T12:03:32;30.20;49.20
27633;DHT22;15046;50.930;13.334;2022-11-15T12:06:04;30.20;48.60
27633;DHT22;15046;50.930;13.334;2022-11-15T12:11:20;30.40;48.00
27633;DHT22;15046;50.930;13.334;2022-11-15T12:13:50;30.30;47.70
27633;DHT22;15046;50.930;13.334;2022-11-15T12:16:27;30.20;47.80
27633;DHT22;15046;50.930;13.334;2022-11-15T12:18:55;30.00;47.60
27633;DHT22;15046;50.930;13.334;2022-11-15T12:24:14;29.80;47.70
27633;DHT22;15046;50.930;13.334;2022-11-15T12:26:48;29.70;47.80
27633;DHT22;15046;50.930;13.334;2022-11-15T12:29:26;29.70;47.60
27633;DHT22;15046;50.930;13.334;2022-11-15T12:31:55;29.60;47.40
27633;DHT22;15046;50.930;13.334;2022-11-15T12:36:52;29.30;48.30
27633;DHT22;15046;50.930;13.334;2022-11-15T12:39:18;29.50;48.10
27633;DHT22;15046;50.930;13.334;2022-11-15T12:59:55;29.40;46.70
27633;DHT22;15046;50.930;13.334;2022-11-15T13:02:29;29.40;46.70
27633;DHT22;15046;50.930;13.334;2022-11-15T13:15:31;28.60;46.70
27633;DHT22;15046;50.930;13.334;2022-11-15T13:17:58;28.50;47.00
27633;DHT22;15046;50.930;13.334;2022-11-15T13:20:30;28.60;47.30
27633;DHT22;15046;50.930;13.334;2022-11-15T13:23:14;28.50;47.10
27633;DHT22;15046;50.930;13.334;2022-11-15T13:28:39;28.20;47.00
27633;DHT22;15046;50.930;13.334;2022-11-15T13:31:17;27.80;47.30
27633;DHT22;15046;50.930;13.334;2022-11-15T13:33:45;27.60;47.50
27633;DHT22;15046;50.930;13.334;2022-11-15T13:38:42;27.30;47.90
27633;DHT22;15046;50.930;13.334;2022-11-15T13:41:21;27.20;47.80
27633;DHT22;15046;50.930;13.334;2022-11-15T13:43:49;26.80;47.90
27633;DHT22;15046;50.930;13.334;2022-11-15T13:46:21;26.60;48.20
27633;DHT22;15046;50.930;13.334;2022-11-15T13:48:57;25.80;48.40
27633;DHT22;15046;50.930;13.334;2022-11-15T13:51:48;24.60;49.20
27633;DHT22;15046;50.930;13.334;2022-11-15T13:54:28;23.00;50.80
27633;DHT22;15046;50.930;13.334;2022-11-15T13:57:18;21.90;52.70
27633;DHT22;15046;50.930;13.334;2022-11-15T14:00:02;21.80;53.00
27633;DHT22;15046;50.930;13.334;2022-11-15T14:02:33;21.30;53.40
27633;DHT22;15046;50.930;13.334;2022-11-15T14:05:00;20.60;54.50
27633;DHT22;15046;50.930;13.334;2022-11-15T14:07:28;19.80;55.60
27633;DHT22;15046;50.930;13.334;2022-11-15T14:09:54;19.10;56.70
27633;DHT22;15046;50.930;13.334;2022-11-15T14:14:53;17.90;58.60
27633;DHT22;15046;50.930;13.334;2022-11-15T14:19:54;17.20;60.20
27633;DHT22;15046;50.930;13.334;2022-11-15T14:22:22;16.90;60.60
27633;DHT22;15046;50.930;13.334;2022-11-15T14:27:33;16.40;62.20
27633;DHT22;15046;50.930;13.334;2022-11-15T14:29:59;16.30;62.70
27633;DHT22;15046;50.930;13.334;2022-11-15T14:32:28;16.20;63.30
27633;DHT22;15046;50.930;13.334;2022-11-15T14:35:00;16.10;63.80
27633;DHT22;15046;50.930;13.334;2022-11-15T14:37:33;16.00;64.50
27633;DHT22;15046;50.930;13.334;2022-11-15T14:40:05;15.90;65.10
27633;DHT22;15046;50.930;13.334;2022-11-15T14:42:32;15.80;65.40
27633;DHT22;15046;50.930;13.334;2022-11-15T14:44:58;15.70;65.70
27633;DHT22;15046;50.930;13.334;2022-11-15T14:47:24;15.60;66.20
27633;DHT22;15046;50.930;13.334;2022-11-15T14:49:49;15.40;66.60
27633;DHT22;15046;50.930;13.334;2022-11-15T14:52:29;15.20;67.10
27633;DHT22;15046;50.930;13.334;2022-11-15T14:54:59;15.00;67.80
27633;DHT22;15046;50.930;13.334;2022-11-15T14:57:26;15.00;68.20
27633;DHT22;15046;50.930;13.334;2022-11-15T14:59:52;14.80;68.60
27633;DHT22;15046;50.930;13.334;2022-11-15T15:02:26;14.70;69.00
27633;DHT22;15046;50.930;13.334;2022-11-15T15:04:53;14.60;69.50
27633;DHT22;15046;50.930;13.334;2022-11-15T15:07:19;14.50;69.70
27633;DHT22;15046;50.930;13.334;2022-11-15T15:09:45;14.30;69.90
27633;DHT22;15046;50.930;13.334;2022-11-15T15:12:20;14.20;70.00
27633;DHT22;15046;50.930;13.334;2022-11-15T15:14:48;14.00;70.60
27633;DHT22;15046;50.930;13.334;2022-11-15T15:17:15;13.90;70.70
27633;DHT22;15046;50.930;13.334;2022-11-15T15:19:41;13.80;70.90
27633;DHT22;15046;50.930;13.334;2022-11-15T15:22:15;13.70;71.30
27633;DHT22;15046;50.930;13.334;2022-11-15T15:24:43;13.60;71.60
27633;DHT22;15046;50.930;13.334;2022-11-15T15:27:09;13.50;71.70
27633;DHT22;15046;50.930;13.334;2022-11-15T15:29:35;13.50;71.90
27633;DHT22;15046;50.930;13.334;2022-11-15T15:32:01;13.30;72.00
27633;DHT22;15046;50.930;13.334;2022-11-15T15:34:27;13.20;72.30
27633;DHT22;15046;50.930;13.334;2022-11-15T15:37:32;13.10;72.80
27633;DHT22;15046;50.930;13.334;2022-11-15T15:39:58;13.10;73.10
27633;DHT22;15046;50.930;13.334;2022-11-15T15:42:24;13.00;73.10
27633;DHT22;15046;50.930;13.334;2022-11-15T15:44:50;12.90;73.20
27633;DHT22;15046;50.930;13.334;2022-11-15T15:47:23;12.80;73.50
27633;DHT22;15046;50.930;13.334;2022-11-15T15:49:50;12.80;73.90
27633;DHT22;15046;50.930;13.334;2022-11-15T15:52:16;12.70;74.00
27633;DHT22;15046;50.930;13.334;2022-11-15T15:54:43;12.50;74.10
27633;DHT22;15046;50.930;13.334;2022-11-15T15:57:12;12.40;74.50
27633;DHT22;15046;50.930;13.334;2022-11-15T15:59:38;12.30;74.80
27633;DHT22;15046;50.930;13.334;2022-11-15T16:02:04;12.20;75.00
27633;DHT22;15046;50.930;13.334;2022-11-15T16:04:29;12.20;75.20
27633;DHT22;15046;50.930;13.334;2022-11-15T16:06:59;12.10;75.20
27633;DHT22;15046;50.930;13.334;2022-11-15T16:09:25;12.10;75.40
27633;DHT22;15046;50.930;13.334;2022-11-15T16:12:21;12.00;75.60
27633;DHT22;15046;50.930;13.334;2022-11-15T16:14:46;11.90;75.80
27633;DHT22;15046;50.930;13.334;2022-11-15T16:17:18;11.80;76.00
27633;DHT22;15046;50.930;13.334;2022-11-15T16:19:44;11.70;76.20
27633;DHT22;15046;50.930;13.334;2022-11-15T16:22:10;11.60;76.20
27633;DHT22;15046;50.930;13.334;2022-11-15T16:24:36;11.60;76.50
27633;DHT22;15046;50.930;13.334;2022-11-15T16:27:02;11.60;76.60
27633;DHT22;15046;50.930;13.334;2022-11-15T16:29:28;11.50;76.60
27633;DHT22;15046;50.930;13.334;2022-11-15T16:31:54;11.50;76.90
27633;DHT22;15046;50.930;13.334;2022-11-15T16:34:20;11.40;77.00
27633;DHT22;15046;50.930;13.334;2022-11-15T16:36:46;11.40;77.10
27633;DHT22;15046;50.930;13.334;2022-11-15T16:39:12;11.40;77.20
27633;DHT22;15046;50.930;13.334;2022-11-15T16:41:43;11.40;77.10
27633;DHT22;15046;50.930;13.334;2022-11-15T16:44:12;11.40;77.10
27633;DHT22;15046;50.930;13.334;2022-11-15T16:46:41;11.30;77.00
27633;DHT22;15046;50.930;13.334;2022-11-15T16:49:13;11.30;77.10
27633;DHT22;15046;50.930;13.334;2022-11-15T16:51:40;11.20;77.20
27633;DHT22;15046;50.930;13.334;2022-11-15T16:54:07;11.20;77.10
27633;DHT22;15046;50.930;13.334;2022-11-15T16:56:33;11.20;77.30
27633;DHT22;15046;50.930;13.334;2022-11-15T16:58:59;11.10;77.50
27633;DHT22;15046;50.930;13.334;2022-11-15T17:01:35;11.00;77.50
27633;DHT22;15046;50.930;13.334;2022-11-15T17:04:02;10.90;77.70
27633;DHT22;15046;50.930;13.334;2022-11-15T17:06:41;10.80;77.80
27633;DHT22;15046;50.930;13.334;2022-11-15T17:09:16;10.70;78.20
27633;DHT22;15046;50.930;13.334;2022-11-15T17:11:42;10.70;78.50
27633;DHT22;15046;50.930;13.334;2022-11-15T17:14:09;10.60;78.50
27633;DHT22;15046;50.930;13.334;2022-11-15T17:16:35;10.60;78.60
27633;DHT22;15046;50.930;13.334;2022-11-15T17:19:03;10.50;78.80
27633;DHT22;15046;50.930;13.334;2022-11-15T17:21:30;10.40;78.90
27633;DHT22;15046;50.930;13.334;2022-11-15T17:23:58;10.40;79.00
27633;DHT22;15046;50.930;13.334;2022-11-15T17:26:24;10.40;79.10
27633;DHT22;15046;50.930;13.334;2022-11-15T17:28:54;10.30;79.20
27633;DHT22;15046;50.930;13.334;2022-11-15T17:31:20;10.30;79.40
27633;DHT22;15046;50.930;13.334;2022-11-15T17:33:46;10.20;79.40
27633;DHT22;15046;50.930;13.334;2022-11-15T17:36:11;10.20;79.50
27633;DHT22;15046;50.930;13.334;2022-11-15T17:38:40;10.20;79.60
27633;DHT22;15046;50.930;13.334;2022-11-15T17:41:13;10.10;79.70
27633;DHT22;15046;50.930;13.334;2022-11-15T17:43:40;10.10;79.80